createdAt,value
2022-09-01T00:00:15.179Z,23.22
2022-09-01T00:02:44.676Z,23.21
2022-09-01T00:05:12.958Z,23.23
2022-09-01T00:07:42.354Z,23.22
2022-09-01T00:10:11.482Z,23.21
2022-09-01T00:12:40.153Z,23.09
2022-09-01T00:15:11.636Z,23.21
2022-09-01T00:17:40.077Z,23.19
2022-09-01T00:20:09.380Z,23.19
2022-09-01T00:22:37.571Z,23.18
2022-09-01T00:25:08.154Z,23.19
2022-09-01T00:27:36.723Z,23.17
2022-09-01T00:30:06.335Z,22.98
2022-09-01T00:32:34.374Z,23.16
2022-09-01T00:35:02.381Z,23.15
2022-09-01T00:37:30.436Z,23.06
2022-09-01T00:39:58.592Z,23.15
2022-09-01T00:42:28.104Z,23.15
2022-09-01T00:44:56.088Z,23.12
2022-09-01T00:47:24.603Z,23.14
2022-09-01T00:49:53.308Z,23.15
2022-09-01T00:52:28.761Z,23.17
2022-09-01T00:55:01.228Z,23.18
2022-09-01T00:57:30.869Z,23.18
2022-09-01T01:00:01.978Z,23.19
2022-09-01T01:02:30.132Z,23.17
2022-09-01T01:04:59.485Z,23.17
2022-09-01T01:07:29.174Z,23.19
2022-09-01T01:09:57.756Z,23.20
2022-09-01T01:12:30.093Z,23.17
2022-09-01T01:14:59.546Z,23.18
2022-09-01T01:17:27.573Z,23.17
2022-09-01T01:20:15.205Z,23.19
2022-09-01T01:23:06.564Z,23.19
2022-09-01T01:25:42.577Z,23.18
2022-09-01T01:28:15.919Z,23.18
2022-09-01T01:30:52.425Z,23.18
2022-09-01T01:33:22.329Z,23.19
2022-09-01T01:35:53.709Z,23.20
2022-09-01T01:38:22.939Z,23.21
2022-09-01T01:40:56.051Z,23.22
2022-09-01T01:43:26.512Z,23.22
2022-09-01T01:45:56.824Z,23.21
2022-09-01T01:48:30.045Z,23.20
2022-09-01T01:50:59.689Z,23.21
2022-09-01T01:53:29.099Z,23.16
2022-09-01T01:56:00.113Z,23.18
2022-09-01T01:58:32.689Z,23.19
2022-09-01T02:01:01.035Z,23.19
2022-09-01T02:03:38.597Z,23.19
2022-09-01T02:06:09.836Z,23.15
2022-09-01T02:08:40.826Z,23.16
2022-09-01T02:11:13.240Z,23.16
2022-09-01T02:13:41.296Z,23.16
2022-09-01T02:16:13.161Z,23.15
2022-09-01T02:18:48.065Z,23.15
2022-09-01T02:21:20.280Z,23.15
2022-09-01T02:23:50.520Z,23.14
2022-09-01T02:26:23.878Z,23.16
2022-09-01T02:28:55.191Z,23.16
2022-09-01T02:31:28.517Z,23.16
2022-09-01T02:34:01.164Z,23.15
2022-09-01T02:36:32.856Z,23.17
2022-09-01T02:39:01.733Z,23.17
2022-09-01T02:41:34.437Z,23.19
2022-09-01T02:44:04.073Z,23.18
2022-09-01T02:46:32.534Z,23.18
2022-09-01T02:49:04.617Z,23.19
2022-09-01T02:51:33.399Z,23.19
2022-09-01T02:54:01.909Z,23.20
2022-09-01T02:56:31.362Z,23.21
2022-09-01T02:59:00.241Z,23.20
2022-09-01T03:01:31.033Z,23.22
2022-09-01T03:04:03.100Z,23.23
2022-09-01T03:06:34.272Z,23.23
2022-09-01T03:09:05.650Z,23.23
2022-09-01T03:11:36.544Z,23.25
2022-09-01T03:14:05.653Z,23.24
2022-09-01T03:16:33.720Z,23.23
2022-09-01T03:19:04.010Z,23.23
2022-09-01T03:21:32.630Z,23.22
2022-09-01T03:24:02.210Z,23.21
2022-09-01T03:26:31.897Z,23.05
2022-09-01T03:29:01.939Z,23.22
2022-09-01T03:31:31.522Z,23.19
2022-09-01T03:34:03.462Z,23.18
2022-09-01T03:36:35.454Z,23.18
2022-09-01T03:39:03.636Z,23.16
2022-09-01T03:41:33.225Z,23.15
2022-09-01T03:44:02.502Z,23.16
2022-09-01T03:46:36.927Z,23.13
2022-09-01T03:49:08.147Z,23.07
2022-09-01T03:51:39.404Z,23.12
2022-09-01T03:54:09.176Z,23.12
2022-09-01T03:56:41.794Z,23.09
2022-09-01T03:59:17.773Z,23.10
2022-09-01T04:01:47.717Z,23.10
2022-09-01T04:04:17.005Z,23.11
2022-09-01T04:06:46.865Z,23.10
2022-09-01T04:09:15.995Z,23.10
2022-09-01T04:11:47.015Z,23.10
2022-09-01T04:14:18.109Z,23.11
2022-09-01T04:17:05.693Z,23.10
2022-09-01T04:19:39.380Z,23.11
2022-09-01T04:22:14.492Z,23.12
2022-09-01T04:24:46.757Z,23.12
2022-09-01T04:27:18.119Z,23.12
2022-09-01T04:29:48.510Z,23.11
2022-09-01T04:32:17.181Z,23.12
2022-09-01T04:34:51.064Z,23.14
2022-09-01T04:37:21.783Z,22.98
2022-09-01T04:39:59.244Z,23.16
2022-09-01T04:42:32.574Z,23.17
2022-09-01T04:45:10.484Z,23.18
2022-09-01T04:47:42.160Z,23.18
2022-09-01T04:50:17.449Z,23.18
2022-09-01T04:53:07.164Z,23.17
2022-09-01T04:55:44.604Z,23.17
2022-09-01T04:58:17.473Z,23.19
2022-09-01T05:00:49.693Z,23.20
2022-09-01T05:03:21.605Z,23.12
2022-09-01T05:05:55.898Z,23.20
2022-09-01T05:08:24.989Z,23.02
2022-09-01T05:10:57.055Z,23.20
2022-09-01T05:13:39.756Z,23.19
2022-09-01T05:16:13.327Z,23.21
2022-09-01T05:18:47.848Z,23.13
2022-09-01T05:21:18.984Z,23.22
2022-09-01T05:23:48.759Z,23.24
2022-09-01T05:26:18.962Z,23.24
2022-09-01T05:28:49.584Z,23.25
2022-09-01T05:31:19.855Z,23.25
2022-09-01T05:33:48.524Z,23.26
2022-09-01T05:36:20.247Z,23.29
2022-09-01T05:38:49.027Z,23.29
2022-09-01T05:41:20.369Z,23.32
2022-09-01T05:43:55.188Z,23.33
2022-09-01T05:46:28.372Z,23.34
2022-09-01T05:48:58.522Z,23.35
2022-09-01T05:51:45.996Z,23.37
2022-09-01T05:54:18.905Z,23.39
2022-09-01T05:56:47.269Z,23.42
2022-09-01T05:59:24.451Z,23.44
2022-09-01T06:01:58.059Z,23.46
2022-09-01T06:04:27.835Z,23.48
2022-09-01T06:07:06.728Z,23.50
2022-09-01T06:09:39.786Z,23.53
2022-09-01T06:12:09.240Z,23.53
2022-09-01T06:14:37.307Z,23.54
2022-09-01T06:17:07.524Z,23.55
2022-09-01T06:19:37.429Z,23.54
2022-09-01T06:22:06.090Z,23.56
2022-09-01T06:24:34.601Z,23.57
2022-09-01T06:27:02.564Z,23.57
2022-09-01T06:29:31.388Z,23.58
2022-09-01T06:32:02.344Z,23.59
2022-09-01T06:34:36.201Z,23.62
2022-09-01T06:37:04.490Z,23.62
2022-09-01T06:39:34.455Z,23.62
2022-09-01T06:42:05.958Z,23.63
2022-09-01T06:44:46.026Z,23.62
2022-09-01T06:47:15.517Z,23.47
2022-09-01T06:49:45.057Z,23.66
2022-09-01T06:52:20.898Z,23.67
2022-09-01T06:54:52.226Z,23.67
2022-09-01T07:00:18.823Z,23.56
2022-09-01T07:02:50.328Z,23.72
2022-09-01T07:06:08.955Z,23.75
2022-09-01T07:12:24.339Z,23.78
2022-09-01T07:17:44.209Z,23.86
2022-09-01T07:20:28.486Z,23.90
2022-09-01T07:23:04.387Z,23.93
2022-09-01T07:26:01.362Z,23.98
2022-09-01T07:28:41.658Z,23.98
2022-09-01T07:39:54.992Z,24.06
2022-09-01T07:45:59.132Z,23.84
2022-09-01T07:49:01.293Z,24.08
2022-09-01T07:51:36.898Z,24.08
2022-09-01T07:54:05.688Z,24.08
2022-09-01T07:56:39.718Z,24.09
2022-09-01T07:59:15.253Z,24.07
2022-09-01T08:02:06.149Z,24.06
2022-09-01T08:04:34.917Z,24.10
2022-09-01T08:07:05.760Z,24.11
2022-09-01T08:09:43.838Z,24.12
2022-09-01T08:12:14.963Z,24.15
2022-09-01T08:17:58.363Z,24.17
2022-09-01T08:20:30.651Z,24.18
2022-09-01T08:23:10.765Z,24.20
2022-09-01T08:25:42.144Z,24.25
2022-09-01T08:28:12.590Z,24.10
2022-09-01T08:30:47.155Z,24.12
2022-09-01T08:33:22.675Z,24.30
2022-09-01T08:35:52.074Z,24.34
2022-09-01T08:38:20.746Z,24.36
2022-09-01T08:40:57.099Z,24.37
2022-09-01T08:43:46.589Z,24.36
2022-09-01T08:46:21.035Z,24.36
2022-09-01T08:52:12.441Z,24.33
2022-09-01T08:54:46.734Z,24.31
2022-09-01T08:57:22.872Z,24.30
2022-09-01T09:00:30.441Z,24.14
2022-09-01T09:03:15.508Z,24.20
2022-09-01T09:05:53.765Z,24.20
2022-09-01T09:08:45.898Z,24.19
2022-09-01T09:11:26.819Z,24.18
2022-09-01T09:14:04.192Z,24.03
2022-09-01T09:16:38.471Z,24.19
2022-09-01T09:19:11.068Z,24.17
2022-09-01T09:21:41.461Z,24.18
2022-09-01T09:24:18.136Z,24.19
2022-09-01T09:26:50.711Z,24.20
2022-09-01T09:29:20.750Z,24.21
2022-09-01T09:31:50.805Z,24.23
2022-09-01T09:34:32.781Z,24.26
2022-09-01T09:37:16.906Z,24.16
2022-09-01T09:39:45.273Z,24.27
2022-09-01T09:42:16.130Z,24.29
2022-09-01T09:44:51.152Z,24.28
2022-09-01T09:47:45.128Z,24.27
2022-09-01T09:50:26.946Z,24.25
2022-09-01T09:53:12.503Z,24.24
2022-09-01T09:55:56.048Z,24.23
2022-09-01T09:58:26.610Z,24.22
2022-09-01T10:01:07.928Z,24.22
2022-09-01T10:03:44.500Z,24.21
2022-09-01T10:06:15.209Z,24.19
2022-09-01T10:08:45.944Z,24.20
2022-09-01T10:11:33.415Z,24.19
2022-09-01T10:14:07.305Z,24.20
2022-09-01T10:16:42.534Z,24.22
2022-09-01T10:19:16.226Z,24.14
2022-09-01T10:21:46.710Z,24.21
2022-09-01T10:24:22.293Z,24.24
2022-09-01T10:26:58.033Z,24.23
2022-09-01T10:29:34.846Z,24.18
2022-09-01T10:32:30.740Z,24.23
2022-09-01T10:34:59.816Z,24.22
2022-09-01T10:37:28.481Z,24.22
2022-09-01T10:40:20.541Z,24.22
2022-09-01T10:42:53.952Z,24.18
2022-09-01T10:45:32.962Z,24.21
2022-09-01T10:48:31.167Z,24.21
2022-09-01T10:51:38.894Z,24.20
2022-09-01T10:54:09.554Z,24.20
2022-09-01T10:56:44.373Z,24.21
2022-09-01T10:59:32.685Z,24.21
2022-09-01T11:02:29.475Z,24.21
2022-09-01T11:05:16.592Z,24.20
2022-09-01T11:08:03.147Z,24.19
2022-09-01T11:10:47.716Z,24.22
2022-09-01T11:13:32.613Z,24.08
2022-09-01T11:19:36.171Z,24.20
2022-09-01T11:22:12.862Z,24.21
2022-09-01T11:24:58.086Z,24.20
2022-09-01T11:27:58.930Z,24.19
2022-09-01T11:30:37.284Z,23.81
2022-09-01T11:33:27.722Z,24.17
2022-09-01T11:36:01.620Z,24.16
2022-09-01T11:38:39.242Z,24.19
2022-09-01T11:41:07.934Z,24.19
2022-09-01T11:43:37.701Z,24.21
2022-09-01T11:46:16.631Z,24.25
2022-09-01T11:48:47.713Z,24.25
2022-09-01T11:51:21.441Z,24.22
2022-09-01T11:53:50.503Z,24.25
2022-09-01T11:56:21.856Z,24.27
2022-09-01T11:58:51.154Z,24.30
2022-09-01T12:01:21.087Z,24.30
2022-09-01T12:03:51.273Z,24.31
2022-09-01T12:06:24.738Z,24.34
2022-09-01T12:08:57.182Z,24.35
2022-09-01T12:11:30.430Z,24.36
2022-09-01T12:14:04.725Z,24.37
2022-09-01T12:16:38.017Z,24.36
2022-09-01T12:19:07.294Z,24.39
2022-09-01T12:21:38.299Z,24.40
2022-09-01T12:24:16.975Z,24.33
2022-09-01T12:26:45.924Z,24.40
2022-09-01T12:29:17.045Z,24.40
2022-09-01T12:31:47.014Z,24.38
2022-09-01T12:34:27.963Z,24.37
2022-09-01T12:37:09.128Z,24.34
2022-09-01T12:39:39.592Z,24.31
2022-09-01T12:42:24.323Z,24.30
2022-09-01T12:44:57.218Z,24.26
2022-09-01T12:47:51.021Z,24.27
2022-09-01T12:50:53.724Z,24.23
2022-09-01T12:53:25.804Z,24.15
2022-09-01T12:56:00.968Z,24.23
2022-09-01T12:58:31.911Z,24.22
2022-09-01T13:01:05.236Z,24.18
2022-09-01T13:03:34.574Z,24.21
2022-09-01T13:06:04.639Z,24.21
2022-09-01T13:08:34.734Z,24.20
2022-09-01T13:11:06.176Z,24.19
2022-09-01T13:13:35.302Z,24.20
2022-09-01T13:16:10.615Z,24.22
2022-09-01T13:21:27.603Z,24.22
2022-09-01T13:23:55.590Z,24.22
2022-09-01T13:26:24.144Z,24.25
2022-09-01T13:28:53.077Z,24.19
2022-09-01T13:31:30.212Z,24.22
2022-09-01T13:34:22.055Z,24.22
2022-09-01T13:36:51.503Z,24.03
2022-09-01T13:39:20.990Z,24.21
2022-09-01T13:41:49.357Z,24.21
2022-09-01T13:44:18.537Z,24.21
2022-09-01T13:50:05.099Z,24.19
2022-09-01T13:52:24.357Z,24.19
2022-09-01T13:54:52.220Z,24.18
2022-09-01T13:57:20.099Z,24.19
2022-09-01T13:59:47.973Z,24.19
2022-09-01T14:02:17.293Z,24.22
2022-09-01T14:04:46.385Z,24.21
2022-09-01T14:07:16.103Z,24.19
2022-09-01T14:09:43.980Z,24.12
2022-09-01T14:12:12.384Z,24.16
2022-09-01T14:17:29.745Z,24.09
2022-09-01T14:19:58.352Z,24.09
2022-09-01T14:22:26.215Z,24.07
2022-09-01T14:24:54.253Z,24.03
2022-09-01T14:27:22.604Z,24.05
2022-09-01T14:29:55.002Z,24.05
2022-09-01T14:32:27.060Z,24.04
2022-09-01T14:34:57.740Z,24.00
2022-09-01T14:37:26.085Z,24.02
2022-09-01T14:39:55.115Z,24.01
2022-09-01T14:42:24.035Z,24.01
2022-09-01T14:44:51.924Z,24.02
2022-09-01T14:47:22.217Z,23.98
2022-09-01T14:49:50.185Z,24.05
2022-09-01T14:52:21.289Z,24.05
2022-09-01T14:54:49.837Z,24.05
2022-09-01T14:57:37.411Z,24.06
2022-09-01T15:00:10.134Z,24.06
2022-09-01T15:02:38.355Z,24.08
2022-09-01T15:05:07.726Z,24.09
2022-09-01T15:07:37.785Z,24.02
2022-09-01T15:10:07.513Z,24.10
2022-09-01T15:12:35.725Z,24.11
2022-09-01T15:15:03.785Z,24.10
2022-09-01T15:17:31.857Z,24.11
2022-09-01T15:20:20.264Z,24.13
2022-09-01T15:22:50.482Z,24.13
2022-09-01T15:25:18.756Z,24.12
2022-09-01T15:27:47.120Z,24.12
2022-09-01T15:30:17.186Z,23.92
2022-09-01T15:32:46.432Z,24.12
2022-09-01T15:35:15.391Z,24.13
2022-09-01T15:37:44.001Z,24.11
2022-09-01T15:40:13.820Z,24.12
2022-09-01T15:42:41.798Z,24.10
2022-09-01T15:45:16.135Z,24.11
2022-09-01T15:47:45.949Z,24.09
2022-09-01T15:50:21.477Z,24.09
2022-09-01T15:52:53.848Z,24.08
2022-09-01T15:55:25.556Z,24.08
2022-09-01T15:57:55.095Z,24.06
2022-09-01T16:00:25.309Z,24.05
2022-09-01T16:02:54.499Z,24.02
2022-09-01T16:05:22.794Z,24.00
2022-09-01T16:07:52.668Z,23.94
2022-09-01T16:10:21.510Z,23.93
2022-09-01T16:12:51.809Z,23.89
2022-09-01T16:15:22.753Z,23.87
2022-09-01T16:18:07.351Z,23.86
2022-09-01T16:20:38.843Z,23.82
2022-09-01T16:23:17.129Z,23.79
2022-09-01T16:25:46.402Z,23.77
2022-09-01T16:28:24.070Z,23.73
2022-09-01T16:30:53.688Z,23.69
2022-09-01T16:33:21.715Z,23.62
2022-09-01T16:36:06.981Z,23.35
2022-09-01T16:38:47.501Z,23.62
2022-09-01T16:41:28.461Z,23.61
2022-09-01T16:44:06.823Z,23.60
2022-09-01T16:46:43.282Z,23.62
2022-09-01T16:49:20.072Z,23.63
2022-09-01T16:51:57.337Z,23.62
2022-09-01T16:54:37.785Z,23.62
2022-09-01T16:57:13.485Z,23.61
2022-09-01T16:59:52.029Z,23.49
2022-09-01T17:02:38.444Z,23.61
2022-09-01T17:05:18.012Z,23.61
2022-09-01T17:07:52.997Z,23.60
2022-09-01T17:10:32.825Z,23.61
2022-09-01T17:13:17.322Z,23.59
2022-09-01T17:15:51.886Z,23.59
2022-09-01T17:18:29.761Z,23.57
2022-09-01T17:21:03.318Z,23.56
2022-09-01T17:23:38.243Z,23.54
2022-09-01T17:26:15.349Z,23.54
2022-09-01T17:28:48.932Z,23.53
2022-09-01T17:31:30.638Z,23.51
2022-09-01T17:34:10.285Z,23.47
2022-09-01T17:36:47.411Z,23.44
2022-09-01T17:39:28.376Z,23.41
2022-09-01T17:42:01.038Z,23.37
2022-09-01T17:44:37.509Z,23.35
2022-09-01T17:47:17.693Z,23.30
2022-09-01T17:49:54.800Z,23.27
2022-09-01T17:52:37.254Z,23.25
2022-09-01T17:55:14.092Z,23.22
2022-09-01T17:57:47.746Z,23.20
2022-09-01T18:00:23.457Z,23.17
2022-09-01T18:03:14.942Z,23.16
2022-09-01T18:05:46.448Z,23.12
2022-09-01T18:08:30.641Z,23.11
2022-09-01T18:11:02.350Z,23.10
2022-09-01T18:13:52.489Z,23.11
2022-09-01T18:16:24.767Z,23.10
2022-09-01T18:18:54.826Z,23.11
2022-09-01T18:21:27.480Z,23.06
2022-09-01T18:24:02.790Z,23.11
2022-09-01T18:26:36.307Z,23.11
2022-09-01T18:29:06.434Z,22.91
2022-09-01T18:31:56.753Z,23.10
2022-09-01T18:34:35.419Z,23.08
2022-09-01T18:37:12.109Z,23.08
2022-09-01T18:39:51.413Z,23.08
2022-09-01T18:42:26.356Z,23.07
2022-09-01T18:45:05.742Z,22.64
2022-09-01T18:47:36.466Z,23.04
2022-09-01T18:50:11.919Z,23.04
2022-09-01T18:52:52.590Z,23.01
2022-09-01T18:55:28.029Z,22.78
2022-09-01T18:57:58.905Z,22.95
2022-09-01T19:00:35.132Z,22.93
2022-09-01T19:03:12.341Z,22.91
2022-09-01T19:05:54.493Z,22.87
2022-09-01T19:08:31.955Z,22.84
2022-09-01T19:11:09.229Z,22.83
2022-09-01T19:13:53.414Z,22.83
2022-09-01T19:16:33.542Z,22.79
2022-09-01T19:19:10.181Z,22.77
2022-09-01T19:21:39.740Z,22.72
2022-09-01T19:24:13.178Z,22.74
2022-09-01T19:26:44.476Z,22.72
2022-09-01T19:29:17.627Z,22.73
2022-09-01T19:31:49.232Z,22.72
2022-09-01T19:34:22.517Z,22.75
2022-09-01T19:36:57.555Z,22.74
2022-09-01T19:39:28.632Z,22.73
2022-09-01T19:42:04.870Z,22.76
2022-09-01T19:44:42.406Z,22.76
2022-09-01T19:47:16.780Z,22.76
2022-09-01T19:49:52.584Z,22.70
2022-09-01T19:52:32.386Z,22.76
2022-09-01T19:55:04.747Z,22.74
2022-09-01T19:57:40.697Z,22.73
2022-09-01T20:00:14.481Z,22.75
2022-09-01T20:02:48.121Z,22.72
2022-09-01T20:05:27.003Z,22.70
2022-09-01T20:08:02.288Z,22.69
2022-09-01T20:10:56.684Z,22.66
2022-09-01T20:13:38.860Z,22.65
2022-09-01T20:16:19.995Z,22.62
2022-09-01T20:18:51.098Z,22.60
2022-09-01T20:21:21.984Z,22.58
2022-09-01T20:23:58.661Z,22.60
2022-09-01T20:26:32.748Z,22.57
2022-09-01T20:29:06.929Z,22.58
2022-09-01T20:31:40.422Z,22.60
2022-09-01T20:34:15.206Z,22.61
2022-09-01T20:36:47.313Z,22.64
2022-09-01T20:39:36.441Z,22.65
2022-09-01T20:42:09.180Z,22.65
2022-09-01T20:44:44.582Z,22.67
2022-09-01T20:47:13.246Z,22.47
2022-09-01T20:49:41.640Z,22.67
2022-09-01T20:52:16.456Z,22.70
2022-09-01T20:54:53.810Z,22.71
2022-09-01T20:57:31.488Z,22.71
2022-09-01T21:00:03.758Z,22.73
2022-09-01T21:02:43.193Z,22.72
2022-09-01T21:05:22.147Z,22.76
2022-09-01T21:08:01.043Z,22.76
2022-09-01T21:10:38.610Z,22.76
2022-09-01T21:13:20.673Z,22.77
2022-09-01T21:15:59.309Z,22.76
2022-09-01T21:18:41.989Z,22.74
2022-09-01T21:21:18.964Z,22.74
2022-09-01T21:23:46.981Z,22.73
2022-09-01T21:26:16.344Z,22.72
2022-09-01T21:28:48.104Z,22.71
2022-09-01T21:31:16.467Z,22.72
2022-09-01T21:33:44.489Z,22.72
2022-09-01T21:36:12.695Z,22.65
2022-09-01T21:38:40.704Z,22.69
2022-09-01T21:41:13.005Z,22.70
2022-09-01T21:43:46.356Z,22.71
2022-09-01T21:46:16.433Z,22.69
2022-09-01T21:48:44.681Z,22.68
2022-09-01T21:51:12.765Z,22.67
2022-09-01T21:53:40.738Z,22.70
2022-09-01T21:56:08.911Z,22.70
2022-09-01T21:58:38.521Z,22.61
2022-09-01T22:01:08.036Z,22.73
2022-09-01T22:03:38.696Z,22.72
2022-09-01T22:06:06.761Z,22.71
2022-09-01T22:08:34.738Z,22.72
2022-09-01T22:11:02.688Z,22.72
2022-09-01T22:13:30.648Z,22.73
2022-09-01T22:15:58.575Z,22.74
2022-09-01T22:18:28.013Z,22.74
2022-09-01T22:21:02.965Z,22.74
2022-09-01T22:23:31.009Z,22.73
2022-09-01T22:25:59.080Z,22.74
2022-09-01T22:28:27.406Z,22.75
2022-09-01T22:30:55.410Z,22.74
2022-09-01T22:33:25.101Z,22.77
2022-09-01T22:35:57.365Z,22.75
2022-09-01T22:38:25.337Z,22.73
2022-09-01T22:40:55.447Z,22.74
2022-09-01T22:43:24.407Z,22.76
2022-09-01T22:45:53.321Z,22.76
2022-09-01T22:48:25.533Z,22.77
2022-09-01T22:50:55.279Z,22.77
2022-09-01T22:53:23.704Z,22.72
2022-09-01T22:55:52.705Z,22.74
2022-09-01T22:58:21.509Z,22.70
2022-09-01T23:00:52.414Z,22.73
2022-09-01T23:03:21.937Z,22.73
2022-09-01T23:05:50.830Z,22.72
2022-09-01T23:08:20.165Z,22.72
2022-09-01T23:10:48.297Z,22.71
2022-09-01T23:13:17.261Z,22.70
2022-09-01T23:15:45.288Z,22.70
2022-09-01T23:18:13.272Z,22.69
2022-09-01T23:20:41.300Z,22.70
2022-09-01T23:23:09.297Z,22.69
2022-09-01T23:25:39.395Z,22.71
2022-09-01T23:28:09.966Z,22.71
2022-09-01T23:30:38.238Z,22.70
2022-09-01T23:33:06.301Z,22.72
2022-09-01T23:35:34.334Z,22.72
2022-09-01T23:38:02.286Z,22.72
2022-09-01T23:40:30.390Z,22.72
2022-09-01T23:42:59.741Z,22.73
2022-09-01T23:45:29.819Z,22.73
2022-09-01T23:48:04.157Z,22.73
2022-09-01T23:50:32.167Z,22.73
2022-09-01T23:53:00.130Z,22.74
2022-09-01T23:55:28.135Z,22.73
2022-09-01T23:57:56.035Z,22.74
